Time;durP1;ratioP1;P1;durP2;ratioP2;P2;SDS_P1;SDS_P2;PMS_P1;PMS_P2;Temp;Humidity;BMP_temperature;BMP_pressure;BME280_temperature;BME280_humidity;BME280_pressure;Samples;Min_cycle;Max_cycle;Signal;HPM_P1;HPM_P2
2021/10/02 00:46:19;;;;;;;34.03;16.75;;;;;;;12.34;100.00;101261.66;5152035;28;20062;-73
2021/10/02 00:48:49;;;;;;;36.10;18.17;;;;;;;12.33;100.00;101263.53;5145454;28;20034;-73
2021/10/02 00:51:21;;;;;;;38.83;17.13;;;;;;;12.36;100.00;101265.88;5145330;28;20456;-73
2021/10/02 00:53:51;;;;;;;31.40;17.65;;;;;;;12.40;100.00;101269.09;5163162;28;20010;-73
2021/10/02 00:56:22;;;;;;;33.35;17.58;;;;;;;12.42;100.00;101269.75;5162720;28;20033;-73
2021/10/02 00:58:52;;;;;;;31.83;16.77;;;;;;;12.44;100.00;101270.41;5162601;28;20053;-73
2021/10/02 01:01:31;;;;;;;36.42;16.98;;;;;;;12.44;100.00;101265.03;5162853;28;20779;-73
2021/10/02 01:04:13;;;;;;;32.03;16.33;;;;;;;12.47;100.00;101259.31;5162911;28;20078;-73
2021/10/02 01:07:22;;;;;;;27.85;16.35;;;;;;;12.46;100.00;101260.34;5163430;28;20105;-74
2021/10/02 01:10:20;;;;;;;35.83;16.65;;;;;;;12.48;100.00;101255.63;5163012;28;20033;-74
2021/10/02 01:13:09;;;;;;;33.00;16.30;;;;;;;12.47;100.00;101248.56;5145380;28;20522;-74
2021/10/02 01:15:46;;;;;;;33.72;16.63;;;;;;;12.50;100.00;101247.38;5162720;28;20066;-74
2021/10/02 01:18:27;;;;;;;36.97;16.95;;;;;;;12.50;100.00;101242.00;5162977;28;20034;-75
2021/10/02 01:21:21;;;;;;;31.55;15.63;;;;;;;12.49;100.00;101240.31;5145079;28;20026;-73
2021/10/02 01:24:04;;;;;;;26.60;15.20;;;;;;;12.44;100.00;101238.13;5162850;28;20410;-73
2021/10/02 01:26:54;;;;;;;29.90;16.15;;;;;;;12.36;100.00;101230.06;5162793;28;20033;-75
2021/10/02 01:29:27;;;;;;;33.22;15.57;;;;;;;12.30;100.00;101236.97;5162814;28;20034;-75
2021/10/02 01:32:08;;;;;;;30.92;15.57;;;;;;;12.21;100.00;101226.38;5163111;28;20538;-73
2021/10/02 01:37:46;;;;;;;38.25;16.65;;;;;;;12.05;100.00;101222.66;5161901;28;20048;-74
2021/10/02 01:48:50;;;;;;;33.65;16.85;;;;;;;12.13;100.00;101213.75;5162192;28;20484;-74
2021/10/02 01:51:23;;;;;;;33.72;17.55;;;;;;;12.21;100.00;101205.69;5161222;28;20030;-74
2021/10/02 01:53:56;;;;;;;36.65;17.77;;;;;;;12.21;100.00;101208.38;5161591;28;20038;-74
2021/10/02 01:56:28;;;;;;;35.00;16.42;;;;;;;12.21;100.00;101197.63;5162651;28;20126;-74
2021/10/02 01:59:00;;;;;;;33.72;16.33;;;;;;;12.21;100.00;101197.63;5161821;28;20100;-74
2021/10/02 02:01:32;;;;;;;34.33;16.88;;;;;;;12.23;100.00;101200.13;5161685;28;20026;-74
2021/10/02 02:04:03;;;;;;;41.22;17.17;;;;;;;12.21;100.00;101197.63;5161681;28;20052;-74
2021/10/02 02:06:34;;;;;;;44.90;16.77;;;;;;;12.21;100.00;101199.47;5159553;28;20391;-74
2021/10/02 02:09:07;;;;;;;35.22;17.02;;;;;;;12.21;100.00;101188.72;5160206;28;20026;-74
2021/10/02 02:11:39;;;;;;;32.92;14.98;;;;;;;12.16;100.00;101198.13;5161786;28;20066;-75
2021/10/02 02:14:13;;;;;;;34.85;16.30;;;;;;;12.14;100.00;101200.13;5162228;28;20065;-75
2021/10/02 02:16:46;;;;;;;37.80;15.85;;;;;;;12.13;100.00;101201.16;5161927;28;20411;-75
2021/10/02 02:19:19;;;;;;;37.40;17.00;;;;;;;12.14;100.00;101202.81;5144022;28;20096;-75
2021/10/02 02:21:50;;;;;;;45.00;16.65;;;;;;;12.19;100.00;101208.53;5161743;28;20107;-75
2021/10/02 02:24:20;;;;;;;38.53;16.30;;;;;;;12.19;100.00;101210.38;5161488;28;20022;-74
2021/10/02 02:26:51;;;;;;;31.50;15.55;;;;;;;12.19;100.00;101205.84;5161516;28;20546;-75
2021/10/02 02:29:22;;;;;;;33.47;15.00;;;;;;;12.20;100.00;101209.41;5160927;28;20030;-75
2021/10/02 02:31:53;;;;;;;36.08;15.95;;;;;;;12.24;100.00;101207.19;5161535;28;20026;-75
2021/10/02 02:34:24;;;;;;;25.80;14.73;;;;;;;12.20;100.00;101204.03;5161103;28;20022;-75
2021/10/02 02:36:57;;;;;;;34.28;14.95;;;;;;;12.19;100.00;101197.78;5160952;28;20034;-75
2021/10/02 02:39:28;;;;;;;34.50;14.80;;;;;;;12.16;100.00;101191.91;5160806;28;20278;-74
2021/10/02 02:41:58;;;;;;;36.47;16.02;;;;;;;12.13;100.00;101190.38;5160390;28;20065;-75
2021/10/02 02:44:30;;;;;;;38.58;14.88;;;;;;;12.12;100.00;101183.34;5147013;28;20447;-76
2021/10/02 02:47:06;;;;;;;28.00;14.20;;;;;;;12.11;100.00;101178.97;5160940;28;20026;-75
2021/10/02 02:49:45;;;;;;;37.80;14.32;;;;;;;12.02;100.00;101174.59;5160738;28;20028;-75
2021/10/02 02:52:26;;;;;;;36.72;14.23;;;;;;;11.96;100.00;101171.75;5160887;28;20101;-75
2021/10/02 02:55:07;;;;;;;33.13;15.13;;;;;;;11.89;100.00;101167.00;5161285;28;20030;-74
2021/10/02 02:57:41;;;;;;;43.35;14.43;;;;;;;11.84;100.00;101171.22;5160968;28;20034;-75
2021/10/02 03:00:15;;;;;;;35.55;13.77;;;;;;;11.81;100.00;101164.31;5160555;28;20022;-75
2021/10/02 03:02:52;;;;;;;37.80;14.18;;;;;;;11.82;100.00;101174.06;5159780;28;20153;-74
2021/10/02 03:05:26;;;;;;;31.13;14.32;;;;;;;11.81;100.00;101175.06;5160956;28;20353;-74
2021/10/02 03:08:01;;;;;;;35.70;14.30;;;;;;;11.82;100.00;101167.84;5160512;28;20034;-74
2021/10/02 03:10:32;;;;;;;35.58;14.20;;;;;;;11.80;100.00;101168.00;5160416;28;20030;-74
2021/10/02 03:13:05;;;;;;;30.73;14.63;;;;;;;11.73;100.00;101166.13;5159890;28;20488;-74
2021/10/02 03:15:37;;;;;;;33.10;13.40;;;;;;;11.65;100.00;101172.34;5160650;28;20123;-74
2021/10/02 03:18:13;;;;;;;32.67;13.93;;;;;;;11.58;100.00;101176.69;5160408;28;20529;-75
2021/10/02 03:20:49;;;;;;;40.05;14.10;;;;;;;11.53;100.00;101182.56;5160127;28;20118;-74
2021/10/02 03:23:20;;;;;;;31.50;13.15;;;;;;;11.47;100.00;101185.91;5160395;28;20034;-74
2021/10/02 03:25:51;;;;;;;33.47;12.93;;;;;;;11.43;100.00;101189.06;5142752;28;20441;-75
2021/10/02 03:28:22;;;;;;;36.60;14.00;;;;;;;11.40;100.00;101188.41;5160107;28;20031;-75
2021/10/02 03:30:53;;;;;;;32.75;13.48;;;;;;;11.38;100.00;101186.88;5159884;28;20026;-75
2021/10/02 03:33:25;;;;;;;27.58;12.65;;;;;;;11.34;100.00;101185.50;5126800;28;20022;-74
2021/10/02 03:35:55;;;;;;;32.13;12.88;;;;;;;11.28;100.00;101173.56;5159768;28;20592;-74
2021/10/02 03:38:26;;;;;;;33.58;13.20;;;;;;;11.25;100.00;101165.03;5160337;28;20027;-73
2021/10/02 03:41:04;;;;;;;35.30;13.02;;;;;;;11.21;100.00;101164.50;5159867;28;20121;-74
2021/10/02 03:43:36;;;;;;;30.85;14.43;;;;;;;11.18;100.00;101166.66;5157597;28;20361;-74
2021/10/02 03:46:06;;;;;;;39.78;13.82;;;;;;;11.14;100.00;101175.06;5154054;28;20059;-74
2021/10/02 03:48:37;;;;;;;29.77;12.75;;;;;;;11.12;100.00;101181.59;5138476;28;20627;-74
2021/10/02 03:51:08;;;;;;;36.90;13.40;;;;;;;11.09;100.00;101176.53;5159978;28;20026;-74
2021/10/02 03:53:38;;;;;;;32.75;13.52;;;;;;;11.05;100.00;101172.50;5160314;28;20057;-74
2021/10/02 03:56:09;;;;;;;40.20;14.23;;;;;;;11.02;100.00;101165.59;5160154;28;20479;-74
2021/10/02 03:58:40;;;;;;;32.05;13.55;;;;;;;10.98;100.00;101158.84;5159730;28;20480;-73
2021/10/02 04:01:10;;;;;;;36.70;13.25;;;;;;;10.95;100.00;101153.84;5159135;28;20061;-73
2021/10/02 04:03:41;;;;;;;33.45;13.10;;;;;;;10.89;100.00;101146.41;5159401;28;20114;-74
2021/10/02 04:06:12;;;;;;;42.65;13.63;;;;;;;10.83;100.00;101134.47;5159983;28;20057;-74
2021/10/02 04:08:43;;;;;;;32.30;13.30;;;;;;;10.81;100.00;101147.22;5159254;28;20031;-73
2021/10/02 04:11:13;;;;;;;35.13;14.18;;;;;;;10.81;100.00;101146.38;5141916;28;20033;-74
2021/10/02 04:13:44;;;;;;;39.75;14.85;;;;;;;10.79;100.00;101151.91;5159459;28;20057;-74
2021/10/02 04:16:14;;;;;;;45.50;12.02;;;;;;;10.73;100.00;101157.91;5125509;28;20032;-74
2021/10/02 04:18:45;;;;;;;37.65;14.82;;;;;;;10.69;100.00;101159.22;5159809;28;20018;-75
2021/10/02 04:21:15;;;;;;;45.45;14.65;;;;;;;10.68;100.00;101162.91;5159359;28;20568;-75
2021/10/02 04:23:46;;;;;;;35.83;14.95;;;;;;;10.67;100.00;101145.13;5142034;28;20356;-74
2021/10/02 04:26:17;;;;;;;32.38;13.73;;;;;;;10.66;100.00;101153.34;5160376;28;20041;-74
2021/10/02 04:28:49;;;;;;;44.45;14.95;;;;;;;10.63;100.00;101155.34;5159998;28;20030;-73
2021/10/02 04:31:20;;;;;;;41.75;15.20;;;;;;;10.62;100.00;101156.34;5142370;28;20028;-74
2021/10/02 04:33:50;;;;;;;38.28;15.13;;;;;;;10.60;100.00;101152.16;5159663;28;20034;-74
2021/10/02 04:36:21;;;;;;;36.50;13.98;;;;;;;10.53;100.00;101157.28;5159358;28;20549;-74
2021/10/02 04:38:53;;;;;;;40.35;15.02;;;;;;;10.53;100.00;101151.91;5159323;28;20033;-74
2021/10/02 04:41:24;;;;;;;37.88;16.20;;;;;;;10.49;100.00;101155.06;5159232;28;20026;-73
2021/10/02 04:43:55;;;;;;;48.55;15.63;;;;;;;10.45;100.00;101156.41;5159564;28;20546;-73
2021/10/02 04:46:25;;;;;;;40.90;14.27;;;;;;;10.40;100.00;101156.88;5159369;28;20023;-73
2021/10/02 04:48:56;;;;;;;37.22;14.38;;;;;;;10.37;100.00;101159.88;5158893;28;20018;-74
2021/10/02 04:51:26;;;;;;;36.20;15.15;;;;;;;10.31;100.00;101155.97;5142133;28;20025;-75
2021/10/02 04:53:57;;;;;;;36.75;13.13;;;;;;;10.24;100.00;101146.88;5159370;28;20022;-72
2021/10/02 04:56:27;;;;;;;32.05;12.32;;;;;;;10.18;100.00;101146.63;5159434;28;20448;-73
2021/10/02 04:58:58;;;;;;;303.30;20.90;;;;;;;10.10;100.00;101148.25;5158767;28;20036;-74
2021/10/02 05:01:29;;;;;;;272.85;18.85;;;;;;;9.96;100.00;101147.97;5158617;28;20104;-73
2021/10/02 05:04:01;;;;;;;37.53;12.15;;;;;;;9.84;100.00;101150.06;5141214;28;20022;-74
2021/10/02 05:06:31;;;;;;;36.53;12.73;;;;;;;9.81;100.00;101153.03;5158773;28;20026;-74
2021/10/02 05:09:02;;;;;;;34.22;13.93;;;;;;;9.80;100.00;101148.69;5158550;28;20038;-73
2021/10/02 05:11:33;;;;;;;40.17;15.18;;;;;;;9.80;100.00;101148.69;5161849;28;20022;-74
2021/10/02 05:14:03;;;;;;;33.75;12.70;;;;;;;9.81;100.00;101147.66;5163659;28;20081;-74
2021/10/02 05:16:34;;;;;;;34.75;13.25;;;;;;;9.80;100.00;101135.28;5163639;28;20022;-74
2021/10/02 05:19:04;;;;;;;35.53;14.80;;;;;;;9.82;100.00;101144.00;5158521;28;20495;-73
2021/10/02 05:21:34;;;;;;;42.67;13.88;;;;;;;9.81;100.00;101148.50;5158982;28;20034;-73
2021/10/02 05:24:05;;;;;;;35.35;14.18;;;;;;;9.78;100.00;101142.59;5159163;28;20476;-73
2021/10/02 05:26:35;;;;;;;37.65;14.35;;;;;;;9.75;100.00;101143.78;5158660;28;20081;-71
2021/10/02 05:29:06;;;;;;;31.60;13.75;;;;;;;9.73;100.00;101137.72;5161906;28;20472;-71
2021/10/02 05:31:37;;;;;;;26.60;11.85;;;;;;;9.73;100.00;101143.06;5162413;28;20053;-71
2021/10/02 05:34:07;;;;;;;84.28;16.20;;;;;;;9.76;100.00;101148.13;5161981;28;20068;-71
2021/10/02 05:36:38;;;;;;;35.05;13.88;;;;;;;9.80;100.00;101137.97;5161798;28;20041;-71
2021/10/02 05:39:58;;;;;;;34.72;14.18;;;;;;;9.86;100.00;101142.69;5161575;28;20301;-71
2021/10/02 05:42:28;;;;;;;43.85;16.08;;;;;;;9.94;100.00;101139.22;5161788;28;20026;-72
2021/10/02 05:44:59;;;;;;;40.80;15.45;;;;;;;9.98;100.00;101144.13;5161080;28;20392;-72
2021/10/02 05:47:30;;;;;;;49.55;18.30;;;;;;;10.04;100.00;101148.00;5160950;28;20252;-72
2021/10/02 05:50:01;;;;;;;55.80;19.58;;;;;;;10.10;100.00;101148.25;5161235;28;20431;-72
2021/10/02 05:52:31;;;;;;;47.78;19.67;;;;;;;10.17;100.00;101142.25;5161823;28;20022;-72
2021/10/02 05:55:03;;;;;;;68.82;23.30;;;;;;;10.24;100.00;101146.03;5161515;28;20030;-72
2021/10/02 05:57:33;;;;;;;67.57;23.67;;;;;;;10.26;100.00;101146.72;5161214;28;20043;-72
2021/10/02 06:00:07;;;;;;;74.60;24.40;;;;;;;10.29;100.00;101141.91;5143812;28;20380;-72
2021/10/02 06:02:38;;;;;;;65.22;22.70;;;;;;;10.30;100.00;101140.06;5161498;28;20156;-71
2021/10/02 06:05:08;;;;;;;60.28;22.92;;;;;;;10.28;100.00;101142.88;5161436;28;20030;-72
2021/10/02 06:07:38;;;;;;;58.38;23.35;;;;;;;10.31;100.00;101149.78;5161841;28;20026;-72
2021/10/02 06:10:09;;;;;;;55.80;19.80;;;;;;;10.34;100.00;101149.44;5160802;28;20027;-72
2021/10/02 06:12:40;;;;;;;42.42;17.73;;;;;;;10.35;100.00;101154.66;5161368;28;20040;-72
2021/10/02 06:15:10;;;;;;;53.03;20.85;;;;;;;10.38;100.00;101164.22;5160949;28;20380;-72
2021/10/02 06:17:41;;;;;;;69.80;24.42;;;;;;;10.45;100.00;101164.47;5160871;28;20113;-72
2021/10/02 06:20:11;;;;;;;77.60;22.75;;;;;;;10.58;100.00;101162.19;5160320;28;20022;-72
2021/10/02 06:22:42;;;;;;;58.15;22.02;;;;;;;10.62;100.00;101161.69;5152452;28;20026;-72
2021/10/02 06:25:13;;;;;;;60.33;22.65;;;;;;;10.73;100.00;101159.75;5148087;28;20095;-72
2021/10/02 06:27:44;;;;;;;60.10;21.45;;;;;;;10.80;100.00;101160.81;5159624;28;20034;-72
2021/10/02 06:30:15;;;;;;;58.65;21.33;;;;;;;10.86;100.00;101160.16;5159177;28;20313;-72
2021/10/02 06:32:45;;;;;;;69.93;21.77;;;;;;;10.92;100.00;101161.34;5159450;28;20687;-72
2021/10/02 06:35:16;;;;;;;50.05;20.95;;;;;;;10.98;100.00;101153.50;5158952;28;20037;-72
2021/10/02 06:37:46;;;;;;;64.05;21.83;;;;;;;11.05;100.00;101129.53;5158826;28;20081;-72
2021/10/02 06:40:17;;;;;;;58.75;20.63;;;;;;;11.06;100.00;101115.13;5158755;28;20065;-72
2021/10/02 06:42:47;;;;;;;59.25;20.55;;;;;;;11.13;100.00;101125.03;5158961;28;20492;-72
2021/10/02 06:45:18;;;;;;;55.60;20.20;;;;;;;11.19;100.00;101128.91;5158863;28;20105;-72
2021/10/02 06:47:49;;;;;;;50.85;19.70;;;;;;;11.33;100.00;101124.75;5158784;28;20033;-72
2021/10/02 06:50:20;;;;;;;48.58;19.73;;;;;;;11.42;100.00;101118.38;5159033;28;20022;-72
2021/10/02 06:52:50;;;;;;;51.63;19.17;;;;;;;11.58;100.00;101122.94;5159537;28;20089;-72
2021/10/02 06:55:21;;;;;;;51.13;18.48;;;;;;;11.58;100.00;101118.41;5158379;28;20033;-72
2021/10/02 06:57:52;;;;;;;48.05;17.15;;;;;;;11.73;100.00;101121.28;5158217;28;20329;-72
2021/10/02 07:00:22;;;;;;;37.13;16.25;;;;;;;11.82;100.00;101122.16;5158473;28;20132;-72
2021/10/02 07:02:53;;;;;;;40.70;17.13;;;;;;;11.80;100.00;101116.09;5158633;28;20050;-72
2021/10/02 07:05:23;;;;;;;43.53;18.10;;;;;;;11.82;100.00;101116.78;5158586;28;20030;-72
2021/10/02 07:07:54;;;;;;;40.50;19.38;;;;;;;11.88;100.00;101118.78;5158530;28;20486;-72
2021/10/02 07:10:25;;;;;;;40.67;19.05;;;;;;;12.01;100.00;101112.94;5158113;28;20026;-72
2021/10/02 07:12:56;;;;;;;30.77;17.13;;;;;;;12.12;100.00;101113.41;5158603;28;20025;-72
2021/10/02 07:15:26;;;;;;;39.65;16.88;;;;;;;12.22;100.00;101109.69;5158066;28;20041;-72
2021/10/02 07:17:57;;;;;;;31.85;14.95;;;;;;;12.27;100.00;101107.34;5157638;28;20042;-72
2021/10/02 07:20:27;;;;;;;39.20;14.88;;;;;;;12.37;100.00;101108.00;5158639;28;20106;-72
2021/10/02 07:22:58;;;;;;;35.38;15.40;;;;;;;12.41;100.00;101099.41;5158293;28;20026;-72
2021/10/02 07:25:29;;;;;;;31.83;15.30;;;;;;;12.53;100.00;101099.03;5158698;28;20125;-72
2021/10/02 07:28:00;;;;;;;32.30;14.45;;;;;;;12.70;100.00;101089.88;5158167;28;20116;-72
2021/10/02 07:30:30;;;;;;;29.70;13.60;;;;;;;12.85;100.00;101084.59;5158213;28;20519;-72
2021/10/02 07:33:01;;;;;;;28.95;13.23;;;;;;;12.96;100.00;101085.06;5158073;28;20070;-72
2021/10/02 07:35:31;;;;;;;26.88;11.65;;;;;;;12.97;100.00;101093.97;5157738;28;20042;-72
2021/10/02 07:38:02;;;;;;;19.70;11.43;;;;;;;13.05;100.00;101083.19;5158012;28;20471;-72
2021/10/02 07:40:32;;;;;;;22.75;10.60;;;;;;;13.19;100.00;101073.47;5157352;28;20022;-72
2021/10/02 07:43:04;;;;;;;25.50;10.68;;;;;;;13.28;100.00;101077.84;5158561;28;20049;-72
2021/10/02 07:45:34;;;;;;;22.67;9.82;;;;;;;13.33;100.00;101072.75;5158253;28;20069;-72
2021/10/02 07:48:08;;;;;;;22.73;9.57;;;;;;;13.30;100.00;101069.56;5140302;28;20488;-72
2021/10/02 07:50:39;;;;;;;20.48;9.52;;;;;;;13.34;100.00;101070.91;5156835;28;20080;-72
2021/10/02 07:53:10;;;;;;;23.75;9.80;;;;;;;13.42;100.00;101050.13;5158537;28;20030;-72
2021/10/02 07:55:42;;;;;;;20.65;9.13;;;;;;;13.43;100.00;101048.25;5157455;28;20101;-72
2021/10/02 07:58:13;;;;;;;27.90;9.00;;;;;;;13.52;100.00;101043.66;5157670;28;20041;-72
2021/10/02 08:00:44;;;;;;;18.63;8.40;;;;;;;13.63;100.00;101035.13;5157070;28;20427;-72
2021/10/02 08:03:19;;;;;;;17.48;8.32;;;;;;;13.77;100.00;101031.66;5157592;28;20030;-72
2021/10/02 08:05:50;;;;;;;18.95;7.85;;;;;;;14.11;100.00;101024.91;5157726;28;20103;-72
2021/10/02 08:08:21;;;;;;;18.08;7.38;;;;;;;14.31;100.00;101015.25;5157334;28;20484;-72
2021/10/02 08:10:51;;;;;;;12.48;6.53;;;;;;;14.54;100.00;101015.16;5157579;28;20023;-72
2021/10/02 08:13:22;;;;;;;13.23;6.05;;;;;;;14.49;100.00;101017.56;5157869;28;20022;-72
2021/10/02 08:15:57;;;;;;;15.88;7.03;;;;;;;14.32;100.00;101002.59;5157501;28;20027;-72
2021/10/02 08:18:36;;;;;;;15.13;6.90;;;;;;;14.29;100.00;100997.53;5157437;28;20037;-72
2021/10/02 08:21:07;;;;;;;13.00;6.43;;;;;;;14.50;100.00;100997.66;5157551;28;20281;-72
2021/10/02 08:23:38;;;;;;;15.45;6.88;;;;;;;14.66;100.00;101000.16;5157430;28;20030;-72
2021/10/02 08:26:15;;;;;;;11.20;6.03;;;;;;;14.80;100.00;101008.41;5157330;28;20025;-72
2021/10/02 08:28:47;;;;;;;14.68;6.05;;;;;;;14.96;100.00;100989.25;5157575;28;20491;-72
2021/10/02 08:31:21;;;;;;;9.65;5.22;;;;;;;15.22;100.00;100991.41;5157354;28;20109;-72
2021/10/02 08:33:52;;;;;;;10.43;4.93;;;;;;;15.31;100.00;100992.09;5157507;28;20109;-72
2021/10/02 08:36:23;;;;;;;12.60;5.20;;;;;;;15.53;100.00;100991.06;5157438;28;20038;-72
2021/10/02 08:38:53;;;;;;;9.55;4.40;;;;;;;15.72;100.00;100990.41;5157747;28;20026;-72
2021/10/02 08:41:25;;;;;;;10.00;5.05;;;;;;;16.41;100.00;100991.44;5158107;28;20034;-72
2021/10/02 08:43:57;;;;;;;10.30;4.38;;;;;;;16.93;100.00;100980.03;5144633;28;20165;-72
2021/10/02 08:46:28;;;;;;;11.07;4.25;;;;;;;16.83;100.00;100966.88;5157336;28;20109;-72
2021/10/02 08:49:27;;;;;;;13.15;4.45;;;;;;;17.06;100.00;100965.66;5157415;28;20356;-72
2021/10/02 08:51:59;;;;;;;13.00;4.57;;;;;;;17.10;100.00;100964.19;5158061;28;20467;-72
2021/10/02 08:54:35;;;;;;;13.38;4.18;;;;;;;16.50;100.00;100971.28;5157422;28;20033;-73
2021/10/02 08:57:09;;;;;;;9.18;4.00;;;;;;;15.96;100.00;100958.50;5157773;28;20129;-72
2021/10/02 08:59:40;;;;;;;7.93;4.32;;;;;;;15.59;100.00;100971.34;5157352;28;20037;-71
2021/10/02 09:02:11;;;;;;;8.88;4.05;;;;;;;15.47;100.00;100967.50;5159488;28;20026;-71
2021/10/02 09:04:44;;;;;;;10.40;4.50;;;;;;;15.76;100.00;100961.09;5161315;28;20030;-71
2021/10/02 09:07:16;;;;;;;14.90;3.72;;;;;;;16.04;100.00;100956.50;5161251;28;20089;-72
2021/10/02 09:09:48;;;;;;;6.57;3.42;;;;;;;16.18;100.00;100962.81;5160477;28;20030;-72
2021/10/02 09:12:20;;;;;;;9.75;3.85;;;;;;;15.94;100.00;100957.88;5161122;28;20025;-72
2021/10/02 09:14:52;;;;;;;6.97;3.70;;;;;;;15.66;100.00;100947.06;5160485;28;20080;-72
2021/10/02 09:17:24;;;;;;;13.43;3.70;;;;;;;15.63;100.00;100933.94;5161262;28;20479;-72
2021/10/02 09:19:55;;;;;;;7.93;2.85;;;;;;;15.39;100.00;100935.19;5160993;28;20122;-72
2021/10/02 09:22:27;;;;;;;6.30;3.00;;;;;;;15.13;100.00;100939.34;5161680;28;20030;-72
2021/10/02 09:25:00;;;;;;;7.57;3.03;;;;;;;15.05;100.00;100935.94;5165922;23;20042;-72
2021/10/02 09:27:33;;;;;;;7.55;3.22;;;;;;;15.11;100.00;100933.31;5161209;28;20030;-72
2021/10/02 09:30:10;;;;;;;8.32;3.00;;;;;;;14.96;100.00;100925.28;5159983;28;20077;-72
2021/10/02 09:32:44;;;;;;;10.18;3.72;;;;;;;15.06;100.00;100926.78;5161304;28;20022;-72
2021/10/02 09:35:18;;;;;;;9.32;3.38;;;;;;;15.04;100.00;100916.19;5160331;28;20026;-72
2021/10/02 09:37:53;;;;;;;6.85;3.05;;;;;;;15.08;100.00;100906.66;5160602;28;20492;-72
2021/10/02 09:40:25;;;;;;;5.32;2.60;;;;;;;15.19;100.00;100905.31;5158595;28;20104;-72
2021/10/02 09:42:57;;;;;;;6.95;2.47;;;;;;;15.15;100.00;100902.16;5160402;28;20085;-72
2021/10/02 09:45:36;;;;;;;6.25;3.05;;;;;;;15.34;100.00;100900.66;5142765;28;20033;-72
2021/10/02 09:48:10;;;;;;;7.00;3.15;;;;;;;15.39;100.00;100900.91;5160593;28;20030;-72
2021/10/02 09:50:43;;;;;;;6.95;2.50;;;;;;;15.39;100.00;100906.31;5159997;28;20084;-72
2021/10/02 09:53:17;;;;;;;5.78;2.35;;;;;;;15.45;100.00;100901.97;5160263;28;20026;-72
2021/10/02 09:55:50;;;;;;;6.95;2.63;;;;;;;15.33;100.00;100907.09;5160316;28;20173;-72
2021/10/02 09:58:27;;;;;;;7.53;2.45;;;;;;;15.37;100.00;100902.13;5160770;28;20489;-72
2021/10/02 10:01:01;;;;;;;7.00;2.88;;;;;;;15.40;100.00;100891.75;5149450;28;20392;-72
2021/10/02 10:03:44;;;;;;;8.32;2.20;;;;;;;15.43;100.00;100893.22;5160215;28;20038;-72
2021/10/02 10:06:22;;;;;;;10.00;2.70;;;;;;;15.36;100.00;100890.50;5143142;28;20468;-72
2021/10/02 10:09:04;;;;;;;4.43;2.20;;;;;;;15.58;100.00;100896.66;5158671;28;20022;-72
2021/10/02 10:11:46;;;;;;;7.25;2.65;;;;;;;15.69;100.00;100882.63;5160045;28;20018;-72
2021/10/02 10:14:19;;;;;;;7.22;2.25;;;;;;;15.84;100.00;100878.97;5159817;28;20484;-73
2021/10/02 10:17:31;;;;;;;5.30;2.20;;;;;;;15.83;100.00;100877.28;5160192;28;20026;-72
2021/10/02 10:20:09;;;;;;;8.80;2.03;;;;;;;15.75;100.00;100876.41;5159617;28;20058;-72
2021/10/02 10:22:40;;;;;;;6.97;1.92;;;;;;;15.83;100.00;100872.72;5160564;28;20034;-72
2021/10/02 10:25:11;;;;;;;7.10;2.67;;;;;;;15.83;100.00;100867.31;5159777;28;20591;-73
2021/10/02 10:27:44;;;;;;;4.65;2.08;;;;;;;15.77;100.00;100860.00;5160110;28;20030;-73
2021/10/02 10:30:18;;;;;;;7.43;2.42;;;;;;;15.85;100.00;100864.41;5159753;28;20046;-73
2021/10/02 10:32:59;;;;;;;6.63;1.88;;;;;;;15.65;100.00;100870.53;5159705;28;20964;-72
2021/10/02 10:35:36;;;;;;;6.93;2.58;;;;;;;15.54;100.00;100857.53;5160289;28;20121;-72
2021/10/02 10:38:09;;;;;;;8.00;2.10;;;;;;;15.63;100.00;100853.69;5158630;28;20499;-72
2021/10/02 10:40:40;;;;;;;4.35;1.67;;;;;;;15.68;100.00;100853.91;5159141;28;20014;-72
2021/10/02 10:43:11;;;;;;;6.15;2.30;;;;;;;15.72;100.00;100843.53;5159576;28;20088;-72
2021/10/02 10:45:42;;;;;;;5.70;1.65;;;;;;;15.60;100.00;100829.69;5159683;28;20033;-72
2021/10/02 10:48:13;;;;;;;6.90;1.88;;;;;;;15.60;100.00;100837.81;5160260;28;20033;-72
2021/10/02 10:50:45;;;;;;;4.93;1.65;;;;;;;15.64;100.00;100835.56;5159611;28;20087;-72
2021/10/02 10:53:15;;;;;;;5.07;1.85;;;;;;;15.78;100.00;100827.34;5160097;28;20522;-73
2021/10/02 10:55:50;;;;;;;5.75;1.95;;;;;;;16.01;100.00;100821.63;5159126;28;20035;-73
2021/10/02 10:58:23;;;;;;;5.82;2.13;;;;;;;16.25;100.00;100811.25;5159826;28;20076;-72
2021/10/02 11:00:56;;;;;;;6.43;1.52;;;;;;;16.24;100.00;100799.59;5141953;28;20053;-72
2021/10/02 11:03:43;;;;;;;4.93;1.95;;;;;;;16.36;100.00;100797.13;5125517;28;20471;-72
2021/10/02 11:06:16;;;;;;;5.75;2.08;;;;;;;16.39;100.00;100802.13;5158971;28;20085;-72
2021/10/02 11:09:03;;;;;;;3.40;1.45;;;;;;;16.30;100.00;100789.81;5159865;28;20403;-72
2021/10/02 11:11:44;;;;;;;2.25;1.13;;;;;;;16.37;100.00;100777.16;5159365;28;20084;-72
2021/10/02 11:14:16;;;;;;;4.13;1.48;;;;;;;16.43;100.00;100781.75;5142378;28;20053;-73
2021/10/02 11:16:59;;;;;;;4.50;1.65;;;;;;;16.45;100.00;100771.53;5159783;28;20030;-72
2021/10/02 11:19:32;;;;;;;3.05;1.58;;;;;;;16.44;100.00;100775.28;5159084;28;20117;-72
2021/10/02 11:22:10;;;;;;;8.45;1.50;;;;;;;16.75;100.00;100780.13;5160185;28;20037;-72
2021/10/02 11:24:42;;;;;;;6.55;1.70;;;;;;;17.07;100.00;100767.59;5158215;28;20042;-72
2021/10/02 11:27:22;;;;;;;4.47;1.70;;;;;;;17.11;100.00;100764.47;5159837;28;20471;-72
2021/10/02 11:29:53;;;;;;;4.25;1.50;;;;;;;17.00;100.00;100757.81;5159801;28;20133;-73
2021/10/02 11:32:30;;;;;;;7.60;2.03;;;;;;;16.77;100.00;100750.97;5159255;28;20455;-72
2021/10/02 11:35:21;;;;;;;3.42;1.33;;;;;;;16.67;100.00;100741.56;5159119;28;20045;-72
2021/10/02 11:37:54;;;;;;;3.72;1.50;;;;;;;16.50;100.00;100741.13;5159065;28;20022;-72
2021/10/02 11:40:32;;;;;;;2.42;1.30;;;;;;;16.33;100.00;100732.56;5141304;28;20395;-72
2021/10/02 11:43:12;;;;;;;6.47;1.80;;;;;;;16.39;100.00;100729.03;5139112;28;20109;-72
2021/10/02 11:45:44;;;;;;;5.38;1.63;;;;;;;16.54;100.00;100718.00;5156204;28;20042;-72
2021/10/02 11:48:15;;;;;;;4.03;1.17;;;;;;;16.63;100.00;100719.47;5159469;28;20034;-72
2021/10/02 11:50:48;;;;;;;3.00;1.50;;;;;;;16.76;100.00;100708.63;5158258;28;20109;-72
2021/10/02 11:53:20;;;;;;;6.10;1.50;;;;;;;16.78;100.00;100695.72;5158707;28;20054;-72
2021/10/02 11:55:51;;;;;;;8.60;1.90;;;;;;;16.71;100.00;100692.19;5141028;28;20038;-72
2021/10/02 11:58:22;;;;;;;3.17;1.30;;;;;;;16.78;100.00;100694.91;5159570;28;20022;-72
2021/10/02 12:00:58;;;;;;;7.00;1.85;;;;;;;16.75;100.00;100682.59;5158231;28;20225;-72
2021/10/02 12:03:30;;;;;;;6.85;1.48;;;;;;;16.68;100.00;100679.03;5158614;28;20038;-73
2021/10/02 12:06:03;;;;;;;4.72;1.60;;;;;;;16.64;100.00;100688.63;5158487;28;20158;-72
2021/10/02 12:08:34;;;;;;;5.38;1.83;;;;;;;16.45;100.00;100674.06;5158096;28;20176;-72
2021/10/02 12:11:08;;;;;;;4.32;1.85;;;;;;;16.36;100.00;100677.16;5158456;28;20101;-72
2021/10/02 12:13:49;;;;;;;5.60;1.52;;;;;;;16.46;100.00;100667.59;5158584;28;20027;-72
2021/10/02 12:16:25;;;;;;;5.20;1.60;;;;;;;16.44;100.00;100658.03;5158291;28;20026;-73
2021/10/02 12:19:01;;;;;;;4.00;1.60;;;;;;;16.49;100.00;100658.22;5157895;28;20037;-72
2021/10/02 12:21:45;;;;;;;2.40;1.45;;;;;;;16.56;100.00;100648.22;5159048;28;20034;-72
2021/10/02 12:24:25;;;;;;;4.78;1.92;;;;;;;16.57;100.00;100636.34;5158281;28;20039;-72
2021/10/02 12:27:02;;;;;;;10.30;2.40;;;;;;;16.63;100.00;100640.94;5158747;28;20044;-72
2021/10/02 12:29:39;;;;;;;6.93;2.10;;;;;;;16.63;100.00;100629.25;5157815;28;20395;-72
2021/10/02 12:32:14;;;;;;;6.95;2.00;;;;;;;16.45;100.00;100629.91;5158457;28;20037;-73